Time;durP1;ratioP1;P1;durP2;ratioP2;P2;SDS_P1;SDS_P2;PMS_P1;PMS_P2;Temp;Humidity;BMP_temperature;BMP_pressure;BME280_temperature;BME280_humidity;BME280_pressure;Samples;Min_cycle;Max_cycle;Signal;HPM_P1;HPM_P2
2022/07/13 00:01:20;;;;;;;8.33;7.83;;;;;;;14.48;58.02;93259.13;5079007;28;20224;-73
2022/07/13 00:03:45;;;;;;;8.40;8.00;;;;;;;14.68;58.01;93273.03;5079947;28;20232;-73
2022/07/13 00:06:11;;;;;;;7.70;7.40;;;;;;;14.67;58.74;93288.03;5081244;28;20247;-73
2022/07/13 00:08:36;;;;;;;8.30;7.90;;;;;;;14.55;59.63;93287.69;5077266;28;20192;-73
2022/07/13 00:11:01;;;;;;;9.07;8.43;;;;;;;14.70;58.92;93287.44;5074681;28;20332;-73
2022/07/13 00:13:27;;;;;;;8.00;7.57;;;;;;;14.56;59.18;93264.78;5078492;28;20268;-73
2022/07/13 00:15:52;;;;;;;7.40;7.10;;;;;;;14.40;59.85;93266.88;5078287;28;20221;-73
2022/07/13 00:18:18;;;;;;;7.73;7.43;;;;;;;14.51;59.85;93283.28;5078495;28;20185;-73
2022/07/13 00:20:45;;;;;;;7.43;7.13;;;;;;;14.33;59.29;93263.84;5081607;28;21565;-73
2022/07/13 00:23:10;;;;;;;6.97;6.73;;;;;;;14.33;59.66;93267.22;5083195;28;20204;-73
2022/07/13 00:25:36;;;;;;;8.07;7.53;;;;;;;14.53;59.70;93292.44;5066151;28;20184;-73
2022/07/13 00:28:01;;;;;;;8.00;7.60;;;;;;;14.61;59.54;93291.78;5085034;28;20204;-73
2022/07/13 00:30:26;;;;;;;7.50;7.20;;;;;;;14.49;60.25;93276.47;5081359;28;20183;-73
2022/07/13 00:32:52;;;;;;;7.37;7.03;;;;;;;14.23;60.07;93256.06;5079953;28;20235;-73
2022/07/13 00:35:17;;;;;;;7.97;7.27;;;;;;;14.48;59.48;93261.78;5081166;28;20200;-73
2022/07/13 00:37:43;;;;;;;7.53;7.27;;;;;;;14.37;59.33;93262.97;5083489;28;20212;-73
2022/07/13 00:40:09;;;;;;;7.50;7.20;;;;;;;14.18;59.57;93220.16;5082807;28;20248;-73
2022/07/13 00:42:35;;;;;;;8.40;7.80;;;;;;;14.41;59.84;93271.09;5084034;28;20244;-72
2022/07/13 00:45:00;;;;;;;8.07;7.77;;;;;;;14.44;60.02;93279.16;5083681;28;20190;-74
2022/07/13 00:47:31;;;;;;;7.17;6.87;;;;;;;14.38;60.31;93277.66;5078765;28;20221;-73
2022/07/13 00:49:57;;;;;;;8.27;7.87;;;;;;;14.38;61.09;93276.91;5083768;28;20285;-73
2022/07/13 00:52:23;;;;;;;8.47;8.07;;;;;;;14.23;62.16;93277.88;5079972;28;20512;-74
2022/07/13 00:54:49;;;;;;;8.47;8.07;;;;;;;14.10;63.05;93267.28;5062472;28;20227;-73
2022/07/13 00:57:15;;;;;;;7.70;7.40;;;;;;;14.18;63.33;93285.00;5081969;28;20221;-73
2022/07/13 00:59:40;;;;;;;7.63;7.23;;;;;;;14.20;60.91;93275.00;5082742;28;20197;-73
2022/07/13 01:02:06;;;;;;;7.60;7.27;;;;;;;14.00;62.52;93257.69;5082443;28;20229;-73
2022/07/13 01:04:31;;;;;;;8.23;7.73;;;;;;;13.88;62.62;93253.94;5061289;28;20187;-73
2022/07/13 01:06:58;;;;;;;7.73;7.33;;;;;;;13.91;63.20;93254.16;5081774;28;20313;-73
2022/07/13 01:09:25;;;;;;;7.33;7.03;;;;;;;14.12;61.78;93276.44;5080684;28;20190;-73
2022/07/13 01:11:52;;;;;;;7.67;7.37;;;;;;;14.01;61.71;93274.22;5079360;28;20233;-73
2022/07/13 01:14:17;;;;;;;7.93;7.63;;;;;;;13.83;62.14;93233.00;5080876;28;20185;-74
2022/07/13 01:16:43;;;;;;;8.27;7.73;;;;;;;13.85;62.24;93262.38;5081952;28;20276;-73
2022/07/13 01:19:11;;;;;;;8.17;7.80;;;;;;;13.82;62.93;93268.19;5080230;28;20174;-73
2022/07/13 01:21:40;;;;;;;7.43;7.13;;;;;;;13.66;62.51;93249.22;5081828;28;20767;-73
2022/07/13 01:24:07;;;;;;;7.23;6.83;;;;;;;13.68;63.40;93275.19;5082129;28;20183;-73
2022/07/13 01:26:33;;;;;;;7.57;7.27;;;;;;;13.71;62.59;93278.00;5082072;28;20265;-73
2022/07/13 01:28:58;;;;;;;7.57;7.17;;;;;;;13.45;64.61;93279.34;5080570;28;20235;-73
2022/07/13 01:31:34;;;;;;;8.10;7.80;;;;;;;13.39;64.52;93272.59;5080130;28;20228;-73
2022/07/13 01:34:00;;;;;;;9.63;8.80;;;;;;;13.56;64.74;93275.56;5081861;28;20219;-73
2022/07/13 01:36:26;;;;;;;7.87;7.37;;;;;;;13.45;65.29;93268.88;5080826;28;20300;-73
2022/07/13 01:38:52;;;;;;;7.50;7.10;;;;;;;13.05;65.36;93221.31;5080055;28;20185;-72
2022/07/13 01:41:19;;;;;;;8.57;7.73;;;;;;;13.42;65.67;93264.19;5080986;28;20233;-73
2022/07/13 01:43:46;;;;;;;7.23;6.93;;;;;;;13.36;65.63;93231.22;5062252;28;20189;-74
2022/07/13 01:46:11;;;;;;;7.67;7.37;;;;;;;13.48;65.36;93249.94;5081423;28;20266;-73
2022/07/13 01:48:37;;;;;;;8.67;7.97;;;;;;;13.44;66.39;93264.69;5082061;28;20856;-73
2022/07/13 01:51:02;;;;;;;8.27;7.93;;;;;;;13.29;67.12;93258.84;5079420;28;20235;-73
2022/07/13 01:53:28;;;;;;;7.47;7.17;;;;;;;13.26;67.59;93257.53;5080310;28;20276;-73
2022/07/13 01:55:53;;;;;;;7.80;7.50;;;;;;;12.95;69.11;93232.66;5081793;28;20280;-73
2022/07/13 01:58:19;;;;;;;8.43;8.03;;;;;;;13.21;68.83;93265.47;5079123;28;20177;-73
2022/07/13 02:00:44;;;;;;;6.97;6.73;;;;;;;13.12;68.46;93258.47;5079604;28;20263;-73
2022/07/13 02:03:09;;;;;;;8.20;7.73;;;;;;;13.08;68.03;93245.16;5079847;28;20173;-73
2022/07/13 02:05:35;;;;;;;8.00;7.70;;;;;;;13.14;68.48;93264.22;5080329;28;20214;-73
2022/07/13 02:08:01;;;;;;;7.90;7.60;;;;;;;13.17;68.19;93258.44;5080828;28;20188;-74
2022/07/13 02:10:36;;;;;;;8.50;8.13;;;;;;;13.13;67.73;93279.19;5079575;28;20239;-73
2022/07/13 02:13:05;;;;;;;7.63;7.27;;;;;;;13.04;66.94;93272.97;5081214;28;20272;-74
2022/07/13 02:15:31;;;;;;;7.23;6.83;;;;;;;13.11;66.42;93272.63;5078454;28;20211;-74
2022/07/13 02:17:56;;;;;;;8.20;7.80;;;;;;;13.12;65.91;93267.09;5080909;28;20241;-73
2022/07/13 02:20:21;;;;;;;7.60;7.30;;;;;;;13.14;65.22;93264.22;5080914;28;20253;-71
2022/07/13 02:22:47;;;;;;;7.70;7.40;;;;;;;13.12;65.44;93264.50;5078243;28;20239;-71
2022/07/13 02:25:13;;;;;;;7.27;6.97;;;;;;;13.12;63.97;93258.47;5081496;28;20218;-71
2022/07/13 02:27:42;;;;;;;7.63;7.33;;;;;;;13.25;65.41;93276.97;5078857;28;20212;-72
2022/07/13 02:30:10;;;;;;;7.73;7.43;;;;;;;13.25;65.90;93266.47;5078083;28;20178;-71
2022/07/13 02:32:35;;;;;;;8.00;7.40;;;;;;;13.27;67.03;93280.09;5079371;28;20217;-72
2022/07/13 02:35:01;;;;;;;8.07;7.73;;;;;;;13.21;68.24;93286.44;5076587;28;20193;-72
2022/07/13 02:37:26;;;;;;;7.73;7.43;;;;;;;13.15;68.24;93282.31;5077025;28;20250;-71
2022/07/13 02:39:53;;;;;;;15.57;8.83;;;;;;;13.11;67.86;93257.69;5079391;28;20253;-70
2022/07/13 02:42:18;;;;;;;7.40;7.10;;;;;;;13.04;67.58;93262.50;5079809;28;20225;-73
2022/07/13 02:44:44;;;;;;;8.07;7.77;;;;;;;13.12;66.55;93282.06;5081840;28;20220;-71
2022/07/13 02:47:09;;;;;;;8.00;7.50;;;;;;;13.05;65.97;93264.06;5077469;28;20214;-72
2022/07/13 02:49:34;;;;;;;8.67;8.27;;;;;;;13.02;66.84;93272.47;5079602;28;20181;-70
2022/07/13 02:52:00;;;;;;;8.10;7.80;;;;;;;13.05;65.57;93269.28;5075313;28;20221;-72
2022/07/13 02:54:26;;;;;;;7.07;6.87;;;;;;;13.16;65.63;93276.00;5078787;28;20802;-71
2022/07/13 02:56:51;;;;;;;7.40;7.17;;;;;;;13.26;65.07;93262.78;5077563;28;20221;-71
2022/07/13 02:59:17;;;;;;;7.10;6.70;;;;;;;13.10;65.08;93253.53;5079701;28;20185;-71
2022/07/13 03:01:43;;;;;;;7.80;7.50;;;;;;;13.15;64.61;93247.44;5080752;28;20243;-72
2022/07/13 03:04:08;;;;;;;8.23;7.93;;;;;;;13.35;65.45;93271.63;5059970;28;20181;-71
2022/07/13 03:06:34;;;;;;;7.63;7.30;;;;;;;13.17;64.23;93232.97;5077737;28;20259;-71
2022/07/13 03:08:59;;;;;;;8.73;8.30;;;;;;;13.39;65.36;93261.31;5078250;28;20217;-73
2022/07/13 03:11:24;;;;;;;8.00;7.70;;;;;;;13.54;65.62;93269.81;5082859;28;20227;-72
2022/07/13 03:13:50;;;;;;;7.80;7.50;;;;;;;13.82;63.63;93245.31;5080488;28;20258;-72
2022/07/13 03:16:15;;;;;;;7.63;7.33;;;;;;;14.51;61.46;93257.00;5062180;28;20216;-72
2022/07/13 03:18:40;;;;;;;9.17;8.67;;;;;;;15.56;58.48;93252.56;5077539;28;20188;-71
2022/07/13 03:21:10;;;;;;;8.07;7.77;;;;;;;16.52;55.56;93259.25;5079489;28;20224;-71
2022/07/13 03:23:36;;;;;;;8.43;8.03;;;;;;;17.22;51.97;93271.50;5079243;28;20247;-72
2022/07/13 03:26:02;;;;;;;7.53;6.87;;;;;;;17.16;51.51;93216.53;5078033;28;20229;-73
2022/07/13 03:28:27;;;;;;;7.63;7.10;;;;;;;16.84;51.93;93272.97;5079415;28;20252;-72
2022/07/13 03:30:53;;;;;;;7.73;7.30;;;;;;;16.54;52.42;93278.19;5076887;28;20219;-72
2022/07/13 03:33:18;;;;;;;8.47;7.90;;;;;;;16.13;54.10;93246.63;5061665;28;20251;-71
2022/07/13 03:35:43;;;;;;;8.03;7.63;;;;;;;15.76;57.49;93270.59;5079301;28;20236;-72
2022/07/13 03:38:09;;;;;;;7.50;7.07;;;;;;;16.77;54.52;93251.53;5078898;28;20876;-71
2022/07/13 03:40:34;;;;;;;7.37;7.07;;;;;;;17.41;52.18;93239.63;5079540;28;20185;-71
2022/07/13 03:42:59;;;;;;;7.30;7.00;;;;;;;16.80;54.35;93266.75;5081108;28;20211;-71
2022/07/13 03:45:25;;;;;;;8.10;7.33;;;;;;;17.27;53.38;93276.66;5076178;28;20177;-74
2022/07/13 03:47:50;;;;;;;8.10;7.70;;;;;;;18.84;49.51;93276.47;5078886;28;20240;-71
2022/07/13 03:50:16;;;;;;;7.60;7.20;;;;;;;18.64;48.66;93250.66;5079813;28;20254;-72
2022/07/13 03:52:41;;;;;;;8.13;7.47;;;;;;;19.97;47.34;93277.41;5078481;28;20246;-70
2022/07/13 03:55:08;;;;;;;7.50;7.10;;;;;;;19.81;43.42;93271.13;5080053;28;21084;-71
2022/07/13 03:57:33;;;;;;;7.43;7.10;;;;;;;20.05;45.68;93284.56;5083362;28;20220;-70
2022/07/13 03:59:59;;;;;;;8.30;7.90;;;;;;;19.61;47.53;93285.03;5082609;28;20203;-72
2022/07/13 04:02:25;;;;;;;8.13;7.73;;;;;;;19.53;44.97;93285.88;5082480;28;20244;-71
2022/07/13 04:04:50;;;;;;;7.77;7.47;;;;;;;19.61;42.11;93274.44;5082300;28;20182;-73
2022/07/13 04:07:16;;;;;;;7.90;7.50;;;;;;;19.48;42.35;93270.16;5081835;28;20226;-72
2022/07/13 04:09:41;;;;;;;7.17;6.87;;;;;;;19.21;43.84;93267.84;5061245;28;20226;-70
2022/07/13 04:12:07;;;;;;;6.87;6.57;;;;;;;18.28;45.77;93268.63;5061571;28;20234;-71
2022/07/13 04:14:32;;;;;;;7.27;6.97;;;;;;;18.16;46.91;93265.81;5059760;28;20192;-71
2022/07/13 04:16:57;;;;;;;7.20;6.90;;;;;;;17.96;48.56;93288.28;5062444;28;21217;-71
2022/07/13 04:19:23;;;;;;;12.37;7.30;;;;;;;17.85;48.19;93288.91;5065146;28;20218;-70
2022/07/13 04:21:48;;;;;;;8.07;7.57;;;;;;;17.50;49.48;93290.63;5062146;28;20243;-73
2022/07/13 04:24:14;;;;;;;7.67;7.03;;;;;;;17.26;49.57;93285.66;5061300;28;20191;-73
2022/07/13 04:26:39;;;;;;;8.47;7.97;;;;;;;17.21;51.39;93298.22;5063304;28;20237;-71
2022/07/13 04:29:05;;;;;;;8.37;7.93;;;;;;;17.16;53.45;93299.13;5059764;28;20242;-71
2022/07/13 04:31:30;;;;;;;8.30;7.80;;;;;;;17.09;53.58;93290.84;5061145;28;20360;-72
2022/07/13 04:33:55;;;;;;;8.70;7.83;;;;;;;16.97;55.19;93303.00;5061538;28;20189;-72
2022/07/13 04:36:21;;;;;;;7.73;7.40;;;;;;;16.88;55.57;93299.53;5061760;28;20285;-71
2022/07/13 04:38:46;;;;;;;7.83;7.50;;;;;;;16.52;54.32;93289.03;5062255;28;20201;-72
2022/07/13 04:41:12;;;;;;;9.33;8.73;;;;;;;16.28;56.41;93279.78;5059423;28;20229;-70
2022/07/13 04:43:37;;;;;;;10.17;7.57;;;;;;;16.11;55.98;93243.50;5061759;28;20344;-71
2022/07/13 04:46:03;;;;;;;7.20;6.57;;;;;;;16.69;52.41;93286.53;5061766;28;20218;-72
2022/07/13 04:48:29;;;;;;;8.00;7.60;;;;;;;17.01;53.32;93294.19;5061592;28;20217;-71
2022/07/13 04:50:55;;;;;;;7.70;7.40;;;;;;;17.19;53.36;93287.16;5062214;28;20236;-72
2022/07/13 04:53:20;;;;;;;8.23;7.73;;;;;;;17.14;53.93;93300.47;5060695;28;20217;-71
2022/07/13 04:55:46;;;;;;;7.63;7.30;;;;;;;17.22;49.21;93279.44;5060762;28;20232;-70
2022/07/13 04:58:11;;;;;;;6.93;6.53;;;;;;;17.66;49.77;93293.63;5060204;28;20180;-67
2022/07/13 05:00:37;;;;;;;7.13;6.83;;;;;;;17.57;48.92;93275.13;5059085;28;20224;-69
2022/07/13 05:03:02;;;;;;;6.93;6.60;;;;;;;17.68;48.18;93296.75;5061146;28;20183;-68
2022/07/13 05:05:31;;;;;;;6.93;6.63;;;;;;;17.59;48.90;93291.44;5059066;28;20193;-70
2022/07/13 05:07:59;;;;;;;7.30;7.00;;;;;;;17.35;50.54;93298.91;5064386;28;20194;-69
2022/07/13 05:10:24;;;;;;;7.67;7.27;;;;;;;17.17;50.46;93279.56;5071406;28;20225;-72
2022/07/13 05:12:50;;;;;;;7.63;7.33;;;;;;;17.49;48.13;93299.63;5081191;28;20232;-69
2022/07/13 05:15:15;;;;;;;7.57;7.17;;;;;;;17.86;50.09;93272.75;5081855;28;20191;-69
2022/07/13 05:17:41;;;;;;;7.97;7.57;;;;;;;18.51;48.78;93294.66;5081291;28;20221;-67
2022/07/13 05:20:07;;;;;;;7.60;7.20;;;;;;;18.78;48.95;93304.97;5083071;28;20178;-69
2022/07/13 05:22:32;;;;;;;7.90;7.50;;;;;;;19.59;44.27;93303.16;5085014;28;20217;-68
2022/07/13 05:24:59;;;;;;;7.60;7.10;;;;;;;19.30;44.40;93287.16;5085867;28;20198;-69
2022/07/13 05:27:25;;;;;;;7.80;7.30;;;;;;;18.78;45.16;93309.47;5081720;28;20229;-69
2022/07/13 05:29:50;;;;;;;7.33;6.73;;;;;;;18.96;46.31;93306.50;5079212;28;20231;-69
2022/07/13 05:32:16;;;;;;;8.17;7.50;;;;;;;18.82;48.48;93313.81;5081803;28;20239;-69
2022/07/13 05:34:42;;;;;;;7.60;7.20;;;;;;;18.75;47.37;93310.09;5082137;28;20182;-69
2022/07/13 05:37:07;;;;;;;7.13;6.80;;;;;;;19.11;46.17;93318.47;5079419;28;20224;-70
2022/07/13 05:39:32;;;;;;;7.83;7.33;;;;;;;19.55;44.48;93320.00;5083371;28;20190;-69
2022/07/13 05:41:58;;;;;;;7.50;7.20;;;;;;;21.63;39.37;93319.59;5082138;28;20246;-69
2022/07/13 05:44:23;;;;;;;7.03;6.72;;;;;;;25.92;31.42;93336.22;5083458;28;20196;-69
2022/07/13 05:46:49;;;;;;;6.93;6.53;;;;;;;25.18;32.33;93319.50;5080015;28;20228;-69
2022/07/13 05:49:15;;;;;;;6.75;6.40;;;;;;;25.76;31.45;93341.66;5080158;28;20222;-68
2022/07/13 05:51:40;;;;;;;6.90;6.60;;;;;;;26.35;29.23;93341.97;5079878;28;20228;-68
2022/07/13 05:54:05;;;;;;;6.55;6.22;;;;;;;26.72;28.77;93339.53;5081843;28;20196;-69
2022/07/13 05:56:31;;;;;;;7.32;6.85;;;;;;;28.47;27.07;93340.84;5080624;28;20228;-69
2022/07/13 05:58:56;;;;;;;7.75;7.22;;;;;;;29.00;25.89;93333.94;5079627;28;20235;-68
2022/07/13 06:01:22;;;;;;;6.80;6.47;;;;;;;31.29;24.04;93347.94;5078278;28;20289;-69
2022/07/13 06:03:47;;;;;;;7.30;6.80;;;;;;;32.08;22.10;93340.69;5078239;28;20184;-70
2022/07/13 06:06:12;;;;;;;10.30;9.45;;;;;;;31.42;23.61;93344.44;5080362;28;20227;-69
2022/07/13 06:08:39;;;;;;;5.78;5.55;;;;;;;32.58;22.51;93347.34;5078842;28;20259;-70
2022/07/13 06:11:04;;;;;;;6.90;6.45;;;;;;;33.35;21.44;93339.72;5080033;28;20240;-69
2022/07/13 06:13:30;;;;;;;6.07;5.68;;;;;;;30.41;23.19;93329.88;5077501;28;20205;-69
2022/07/13 06:15:57;;;;;;;5.90;5.53;;;;;;;31.95;22.38;93320.72;5078284;28;20225;-68
2022/07/13 06:18:22;;;;;;;6.13;5.72;;;;;;;32.12;21.54;93336.06;5082527;28;20189;-68
2022/07/13 06:20:48;;;;;;;9.13;6.35;;;;;;;32.76;21.47;93336.41;5079166;28;20284;-69
2022/07/13 06:23:15;;;;;;;6.03;5.72;;;;;;;31.34;22.47;93329.44;5075995;28;20189;-68
2022/07/13 06:25:41;;;;;;;6.50;6.00;;;;;;;32.46;21.88;93333.53;5080413;28;20206;-68
2022/07/13 06:28:07;;;;;;;5.70;5.40;;;;;;;32.61;21.53;93345.78;5078570;28;20201;-69
2022/07/13 06:30:35;;;;;;;6.38;6.03;;;;;;;29.54;25.20;93327.72;5078068;28;20192;-68
2022/07/13 06:33:01;;;;;;;6.38;5.88;;;;;;;30.46;23.11;93334.13;5078296;28;20204;-68
2022/07/13 06:35:27;;;;;;;6.18;5.75;;;;;;;30.80;23.75;93333.34;5077241;28;20189;-68
2022/07/13 06:37:53;;;;;;;6.65;6.05;;;;;;;31.35;22.64;93332.91;5080310;28;20234;-69
2022/07/13 06:40:18;;;;;;;6.35;5.85;;;;;;;30.55;23.09;93324.50;5080677;28;20192;-67
2022/07/13 06:42:44;;;;;;;5.97;5.47;;;;;;;31.80;21.90;93335.41;5079802;28;20246;-67
2022/07/13 06:45:10;;;;;;;6.47;5.88;;;;;;;31.86;21.99;93341.97;5077216;28;20193;-68
2022/07/13 06:47:36;;;;;;;5.60;5.20;;;;;;;29.40;24.56;93316.88;5080845;28;20278;-68
2022/07/13 06:50:01;;;;;;;6.10;5.68;;;;;;;29.52;23.72;93313.84;5081141;28;20646;-67
2022/07/13 06:52:26;;;;;;;6.65;6.35;;;;;;;27.38;25.90;93315.53;5078533;28;20232;-69
2022/07/13 06:54:52;;;;;;;7.18;6.78;;;;;;;24.22;31.13;93303.59;5080128;28;20188;-67
2022/07/13 06:57:17;;;;;;;6.53;6.03;;;;;;;23.03;34.50;93301.97;5077093;28;20242;-68
2022/07/13 06:59:43;;;;;;;6.68;6.32;;;;;;;22.37;34.44;93303.41;5077902;28;20193;-68
2022/07/13 07:02:08;;;;;;;7.15;6.80;;;;;;;21.29;37.70;93305.88;5077592;28;20730;-66
2022/07/13 07:04:34;;;;;;;7.07;6.68;;;;;;;21.71;38.22;93297.44;5079288;28;20191;-69
2022/07/13 07:07:00;;;;;;;7.50;6.78;;;;;;;21.62;36.37;93302.09;5076265;28;20229;-68
2022/07/13 07:09:26;;;;;;;7.38;6.97;;;;;;;20.94;37.30;93299.28;5076675;28;20188;-68
2022/07/13 07:11:51;;;;;;;6.60;6.30;;;;;;;21.44;37.89;93302.59;5077107;28;20359;-68
2022/07/13 07:14:17;;;;;;;7.50;7.00;;;;;;;20.29;40.61;93295.38;5079762;28;20188;-67
2022/07/13 07:16:42;;;;;;;6.63;6.30;;;;;;;20.01;40.54;93304.06;5075825;28;20240;-69
2022/07/13 07:19:09;;;;;;;7.22;6.80;;;;;;;20.49;39.82;93299.16;5060496;28;20239;-68
2022/07/13 07:21:34;;;;;;;8.23;7.72;;;;;;;20.32;40.99;93294.75;5078680;28;20228;-68
2022/07/13 07:24:00;;;;;;;6.83;6.43;;;;;;;20.60;39.95;93284.41;5076053;28;20217;-67
2022/07/13 07:26:26;;;;;;;8.27;7.78;;;;;;;20.60;39.81;93306.41;5076862;28;20234;-67
2022/07/13 07:28:51;;;;;;;7.18;6.72;;;;;;;20.08;38.23;93309.63;5077273;28;20222;-68
2022/07/13 07:31:16;;;;;;;6.83;6.60;;;;;;;20.25;40.25;93305.06;5081754;28;20284;-68
2022/07/13 07:33:42;;;;;;;7.77;7.10;;;;;;;20.17;39.24;93313.84;5080064;28;20216;-67
2022/07/13 07:36:07;;;;;;;7.17;6.87;;;;;;;20.60;39.56;93306.41;5077627;28;20269;-68
2022/07/13 07:38:33;;;;;;;11.23;7.47;;;;;;;20.52;39.66;93317.88;5078426;28;20193;-68
2022/07/13 07:40:59;;;;;;;7.77;7.13;;;;;;;20.85;39.00;93311.84;5078301;28;20242;-68
2022/07/13 07:43:24;;;;;;;7.20;6.90;;;;;;;20.66;39.91;93318.41;5074033;28;20187;-68
2022/07/13 07:45:50;;;;;;;7.50;7.10;;;;;;;20.86;40.19;93319.50;5080038;28;20227;-67
2022/07/13 07:48:15;;;;;;;7.70;7.10;;;;;;;21.08;39.26;93310.44;5078167;28;20184;-68
2022/07/13 07:50:41;;;;;;;7.28;6.97;;;;;;;21.01;40.24;93321.59;5060010;28;20200;-67
2022/07/13 07:53:06;;;;;;;8.80;6.80;;;;;;;21.07;39.05;93308.91;5079072;28;20280;-68
2022/07/13 07:55:32;;;;;;;7.40;7.10;;;;;;;21.27;38.68;93302.78;5076422;28;20184;-69
2022/07/13 07:57:58;;;;;;;7.60;7.25;;;;;;;20.67;38.91;93301.38;5075932;28;20198;-68
2022/07/13 08:00:24;;;;;;;7.30;6.90;;;;;;;21.09;39.09;93312.75;5080589;28;20193;-68
2022/07/13 08:02:49;;;;;;;7.95;7.35;;;;;;;21.08;39.13;93310.44;5079368;28;20212;-68
2022/07/13 08:05:15;;;;;;;6.75;6.45;;;;;;;21.08;38.47;93308.56;5057712;28;20184;-67
2022/07/13 08:07:43;;;;;;;7.65;7.13;;;;;;;21.09;38.34;93309.34;5077919;28;20236;-67
2022/07/13 08:10:10;;;;;;;8.00;7.50;;;;;;;21.03;39.20;93308.00;5078308;28;20223;-67
2022/07/13 08:12:35;;;;;;;7.10;6.57;;;;;;;20.99;38.72;93269.91;5078101;28;20248;-67
2022/07/13 08:15:00;;;;;;;7.40;7.00;;;;;;;21.45;38.43;93309.47;5078722;28;20192;-67
2022/07/13 08:17:26;;;;;;;7.40;6.90;;;;;;;21.06;37.61;93304.69;5077306;28;20220;-68
2022/07/13 08:19:52;;;;;;;7.03;6.72;;;;;;;20.91;40.05;93306.03;5077802;28;20198;-66
2022/07/13 08:22:17;;;;;;;7.07;6.78;;;;;;;21.05;39.63;93311.88;5078984;28;20306;-67
2022/07/13 08:24:43;;;;;;;6.60;6.30;;;;;;;21.00;38.90;93304.09;5079434;28;20186;-68
2022/07/13 08:27:08;;;;;;;7.35;6.97;;;;;;;20.91;38.36;93307.91;5079703;28;20286;-68
2022/07/13 08:29:34;;;;;;;7.35;6.97;;;;;;;21.03;38.00;93313.31;5076346;28;20183;-68
2022/07/13 08:32:00;;;;;;;7.50;7.10;;;;;;;20.77;38.32;93304.72;5078738;28;20232;-67
2022/07/13 08:39:53;;;;;;;7.70;7.30;;;;;;;21.40;38.39;93313.09;5080017;28;20270;-66
2022/07/13 08:42:19;;;;;;;7.10;6.80;;;;;;;21.39;37.67;93308.13;5080612;28;20284;-70
2022/07/13 08:44:45;;;;;;;7.57;7.18;;;;;;;21.37;38.95;93275.81;5083747;28;20196;-68
2022/07/13 08:47:11;;;;;;;8.00;7.65;;;;;;;21.37;36.75;93320.97;5080289;28;20227;-69
2022/07/13 08:49:36;;;;;;;7.72;7.22;;;;;;;21.10;37.42;93314.34;5081515;28;20216;-69
2022/07/13 08:52:02;;;;;;;7.57;7.00;;;;;;;21.42;36.82;93318.88;5079986;28;20319;-68
2022/07/13 08:54:29;;;;;;;6.97;6.68;;;;;;;21.60;38.51;93311.50;5080715;28;20216;-67
2022/07/13 08:56:55;;;;;;;8.95;7.18;;;;;;;21.60;37.38;93314.97;5079782;28;20233;-68
2022/07/13 08:59:21;;;;;;;7.28;6.80;;;;;;;21.54;38.53;93313.59;5079407;28;20184;-68
2022/07/13 09:01:46;;;;;;;7.07;6.72;;;;;;;21.44;36.55;93318.53;5080500;28;20715;-68
2022/07/13 09:04:11;;;;;;;7.57;7.20;;;;;;;21.37;36.81;93310.34;5080778;28;20309;-68
2022/07/13 09:06:50;;;;;;;7.97;7.30;;;;;;;21.92;37.00;93316.03;5077782;28;20245;-69
2022/07/13 09:09:27;;;;;;;7.75;7.03;;;;;;;21.84;38.67;93314.22;5079006;28;20220;-68
2022/07/13 09:12:07;;;;;;;7.65;7.35;;;;;;;21.17;38.46;93313.81;5078517;28;20216;-69
2022/07/13 09:14:33;;;;;;;7.15;6.68;;;;;;;21.32;39.46;93306.00;5081437;28;20198;-68
2022/07/13 09:16:58;;;;;;;7.65;7.25;;;;;;;21.37;37.59;93313.00;5081213;28;20318;-68
2022/07/13 09:19:27;;;;;;;7.28;6.97;;;;;;;21.65;38.01;93308.66;5082708;28;20217;-69
2022/07/13 09:22:10;;;;;;;7.85;7.18;;;;;;;21.83;38.37;93307.38;5080984;28;20228;-69
2022/07/13 09:24:43;;;;;;;6.72;6.28;;;;;;;22.27;38.42;93303.84;5079980;28;20195;-70
2022/07/13 09:27:09;;;;;;;7.15;6.85;;;;;;;22.56;34.66;93302.84;5061279;28;20238;-68
2022/07/13 09:29:36;;;;;;;7.30;6.80;;;;;;;22.39;35.05;93293.19;5079664;28;20196;-69
2022/07/13 09:32:06;;;;;;;6.63;6.18;;;;;;;22.91;36.66;93296.66;5082059;28;20256;-69
2022/07/13 09:34:50;;;;;;;6.80;6.50;;;;;;;23.14;35.21;93311.03;5081820;28;20215;-69
2022/07/13 09:37:18;;;;;;;6.15;5.65;;;;;;;23.00;35.43;93305.31;5064020;28;20227;-69
2022/07/13 09:40:05;;;;;;;7.10;6.63;;;;;;;22.85;36.75;93303.34;5082949;28;20177;-68
2022/07/13 09:42:33;;;;;;;6.45;6.15;;;;;;;22.61;36.53;93313.28;5081085;28;20234;-68
2022/07/13 09:47:48;;;;;;;6.85;6.60;;;;;;;22.33;37.06;93291.88;5077073;28;20277;-69
2022/07/13 09:50:17;;;;;;;7.60;7.10;;;;;;;22.33;37.34;93296.41;5080282;28;20266;-68
2022/07/13 09:52:44;;;;;;;6.60;6.40;;;;;;;22.42;36.84;93303.19;5079563;28;20246;-70
2022/07/13 09:55:12;;;;;;;7.10;6.80;;;;;;;23.23;36.16;93303.69;5082152;28;20193;-69
2022/07/13 09:57:45;;;;;;;7.18;6.88;;;;;;;23.22;35.30;93296.78;5080365;28;20242;-70
2022/07/13 10:00:13;;;;;;;6.88;6.65;;;;;;;22.93;35.42;93289.13;5078574;28;20186;-70
2022/07/13 10:02:40;;;;;;;7.05;6.75;;;;;;;22.83;36.28;93300.25;5080178;28;20218;-69
2022/07/13 10:05:06;;;;;;;7.30;6.90;;;;;;;22.38;36.63;93265.06;5080386;28;20184;-71
2022/07/13 10:07:33;;;;;;;7.20;6.65;;;;;;;22.63;35.33;93293.19;5076736;28;20210;-71
2022/07/13 10:09:59;;;;;;;6.05;5.85;;;;;;;22.39;36.79;93285.22;5079577;28;20225;-70
2022/07/13 10:12:24;;;;;;;7.00;6.45;;;;;;;22.13;37.28;93288.22;5079117;28;20222;-69
2022/07/13 10:14:52;;;;;;;6.55;6.25;;;;;;;23.09;37.36;93281.97;5077702;28;20202;-70
2022/07/13 10:17:19;;;;;;;6.78;6.47;;;;;;;23.88;34.43;93296.25;5079617;28;20283;-70
2022/07/13 10:20:07;;;;;;;7.03;6.60;;;;;;;23.79;35.29;93285.75;5076705;28;20187;-70
2022/07/13 10:22:38;;;;;;;7.03;6.72;;;;;;;23.12;35.26;93285.84;5078289;28;20226;-70
2022/07/13 10:25:04;;;;;;;7.28;6.88;;;;;;;22.60;36.36;93301.09;5078782;28;20212;-70
2022/07/13 10:27:32;;;;;;;8.00;6.70;;;;;;;22.95;35.36;93284.25;5078997;28;20212;-69
2022/07/13 10:29:59;;;;;;;7.78;7.10;;;;;;;22.77;35.65;93274.19;5082219;28;20209;-70
2022/07/13 10:32:28;;;;;;;6.47;6.22;;;;;;;23.07;35.37;93268.22;5081006;28;20255;-70
2022/07/13 10:34:58;;;;;;;8.15;7.75;;;;;;;22.57;34.88;93275.91;5078249;28;20191;-68
2022/07/13 10:37:25;;;;;;;6.13;5.93;;;;;;;22.60;35.62;93269.13;5077550;28;20273;-70
2022/07/13 10:40:14;;;;;;;7.60;7.20;;;;;;;22.93;37.30;93273.13;5079492;28;20187;-70
2022/07/13 10:42:55;;;;;;;7.10;6.60;;;;;;;23.40;34.74;93271.44;5078582;28;20216;-70
2022/07/13 10:45:40;;;;;;;7.13;6.82;;;;;;;23.62;33.40;93257.53;5078572;28;20184;-71
2022/07/13 10:48:16;;;;;;;7.03;6.72;;;;;;;23.17;34.59;93262.41;5081133;28;20241;-69
2022/07/13 10:50:57;;;;;;;6.05;5.78;;;;;;;22.65;37.79;93267.00;5076512;28;20259;-70
2022/07/13 10:53:45;;;;;;;7.03;6.70;;;;;;;22.73;37.21;93273.31;5073982;28;20310;-69
2022/07/13 10:56:18;;;;;;;7.00;6.68;;;;;;;22.21;37.27;93270.63;5069583;28;20323;-70
2022/07/13 10:58:45;;;;;;;6.97;6.57;;;;;;;22.31;37.59;93261.38;5079684;28;20180;-70
2022/07/13 11:01:39;;;;;;;6.88;6.47;;;;;;;22.36;38.88;93267.25;5079428;28;20220;-69
2022/07/13 11:04:06;;;;;;;6.80;6.50;;;;;;;21.85;38.97;93274.00;5060844;28;20190;-70
2022/07/13 11:06:32;;;;;;;6.40;6.13;;;;;;;21.56;37.86;93265.41;5075294;28;20264;-70
2022/07/13 11:09:15;;;;;;;7.15;6.47;;;;;;;21.37;38.63;93271.25;5080610;28;20188;-69
2022/07/13 11:11:45;;;;;;;6.88;6.47;;;;;;;21.14;39.71;93263.97;5077082;28;20226;-71
2022/07/13 11:14:40;;;;;;;8.25;6.80;;;;;;;21.42;39.94;93231.19;5063972;28;20182;-70
2022/07/13 11:17:16;;;;;;;7.40;7.00;;;;;;;22.35;38.79;93257.72;5067197;28;20384;-70
2022/07/13 11:19:56;;;;;;;7.03;6.72;;;;;;;22.68;35.75;93258.34;5077802;28;20184;-72
2022/07/13 11:25:38;;;;;;;6.43;5.93;;;;;;;22.94;34.52;93250.72;5078127;28;20228;-68
2022/07/13 11:28:29;;;;;;;7.00;6.70;;;;;;;23.42;36.15;93253.22;5078279;28;20216;-71
2022/07/13 11:30:55;;;;;;;6.88;6.53;;;;;;;23.13;35.88;93245.53;5059926;28;20227;-70
2022/07/13 11:33:21;;;;;;;6.82;6.43;;;;;;;23.19;36.14;93236.19;5080714;28;20217;-70
2022/07/13 11:35:47;;;;;;;7.20;6.80;;;;;;;23.36;35.41;93243.88;5079070;28;20293;-69
2022/07/13 11:38:15;;;;;;;7.47;7.10;;;;;;;23.42;35.51;93249.75;5077246;28;20688;-69
2022/07/13 11:40:41;;;;;;;6.95;6.40;;;;;;;23.18;34.94;93247.97;5077272;28;20199;-69
2022/07/13 11:43:08;;;;;;;6.68;6.35;;;;;;;22.67;36.73;93232.84;5078177;28;20308;-70
2022/07/13 11:45:34;;;;;;;6.22;6.03;;;;;;;22.97;39.01;93231.41;5078994;28;20180;-70